Almagrundet, Sweden

5:20 AM CET on November 24, 2014 (GMT +0100)
Saltaro | Change Station
CLOSE
Current Station
Personal Weather Station
Location: Saltaro, VARMDO
Elevation: 46 ft
Nearby Weather Stations

Elev 46 ft 59.34 °N, 18.62 °E | Updated 48 seconds ago

Overcast
Overcast
43.9 °F
Feels Like 38 °F
N
11.4
Wind Variable Wind from SE
Gusts 17.5 mph

Today
High -- | Low -- °F
--% Chance of Precip.
Yesterday
High -- | Low -- °F
Precip. -- in
7:56 AM 3:02 PM
Waxing Crescent, 3% visible
Pressure 30.09 in
Visibility 6.2 miles
Clouds Overcast 1500 ft
Windchill 38 °F
Dew Point 38 °F
Humidity 80%
Rainfall 0.00 in
Snow Depth Not available.
UV 0 out of 12
Pollen Not available.
Air Quality Not available.
Flu Activity Not available.
METAR ESSB 240350Z AUTO 14019KT 9999 OVC015/// 06/03 Q1019

More Conditions Fewer Conditions

Pressure 30.09 in
Visibility 6.2 miles
Clouds Overcast 1500 ft
Windchill 38 °F
Dew Point 38 °F
Humidity 80%
Rainfall 0.00 in
Snow Depth Not available.
UV 0 out of 12
Pollen Not available.
Air Quality Not available.
Flu Activity Not available.
METAR ESSB 240350Z AUTO 14019KT 9999 OVC015/// 06/03 Q1019

More Conditions Fewer Conditions

10-Day Weather Forecast

Almanac

Astronomy

Nov. 24, 2014 Rise Set
Actual Time
Civil Twilight
Nautical Twilight
Astronomical Twilight
Moon
Length of Visible Light
Length of Day
Tomorrow will be .
, % of the Moon is Illuminated

Today's Extremes

Country Highs Country Lows

Community

WunderPhotos

Upload Photos

1,773,266 photos uploaded!

WunderBlogs® & News

Nearby

Air Quality

  Air Quality AQ Index Pollutant
Not available.

Snow Depth

Station Depth Elevation

Earthquake Activity

City Distance Mag. Time & Date
Minimum magnitude displayed is 2.5.

Coastal Water Temperatures

Place Temperature

Nearby Weather Stations